sensor_id;sensor_type;location;lat;lon;timestamp;pressure;altitude;pressure_sealevel;temperature;humidity
29907;BME280;16776;50.958;10.994;2023-03-12T00:00:50;98159.34;;;-2.07;89.35
29907;BME280;16776;50.958;10.994;2023-03-12T00:03:17;98151.69;;;-2.10;89.37
29907;BME280;16776;50.958;10.994;2023-03-12T00:05:44;98156.72;;;-2.12;88.94
29907;BME280;16776;50.958;10.994;2023-03-12T00:08:13;98154.19;;;-2.13;89.55
29907;BME280;16776;50.958;10.994;2023-03-12T00:10:41;98146.59;;;-2.15;89.34
29907;BME280;16776;50.958;10.994;2023-03-12T00:13:09;98149.91;;;-2.19;89.40
29907;BME280;16776;50.958;10.994;2023-03-12T00:15:36;98154.03;;;-2.23;89.04
29907;BME280;16776;50.958;10.994;2023-03-12T00:18:03;98151.47;;;-2.26;89.40
29907;BME280;16776;50.958;10.994;2023-03-12T00:20:30;98164.06;;;-2.27;88.80
29907;BME280;16776;50.958;10.994;2023-03-12T00:22:59;98164.84;;;-2.30;88.80
29907;BME280;16776;50.958;10.994;2023-03-12T00:25:30;98164.00;;;-2.32;89.46
29907;BME280;16776;50.958;10.994;2023-03-12T00:27:58;98164.81;;;-2.33;89.39
29907;BME280;16776;50.958;10.994;2023-03-12T00:30:26;98178.22;;;-2.34;88.82
29907;BME280;16776;50.958;10.994;2023-03-12T00:32:53;98178.19;;;-2.35;89.20
29907;BME280;16776;50.958;10.994;2023-03-12T00:35:20;98173.13;;;-2.37;89.18
29907;BME280;16776;50.958;10.994;2023-03-12T00:37:46;98176.50;;;-2.38;89.43
29907;BME280;16776;50.958;10.994;2023-03-12T00:40:13;98178.16;;;-2.38;89.29
29907;BME280;16776;50.958;10.994;2023-03-12T00:42:40;98175.59;;;-2.40;89.10
29907;BME280;16776;50.958;10.994;2023-03-12T00:45:08;98173.91;;;-2.41;88.84
29907;BME280;16776;50.958;10.994;2023-03-12T00:47:35;98167.97;;;-2.44;89.09
29907;BME280;16776;50.958;10.994;2023-03-12T00:50:03;98148.47;;;-2.53;89.39
29907;BME280;16776;50.958;10.994;2023-03-12T00:52:30;98169.56;;;-2.48;89.19
29907;BME280;16776;50.958;10.994;2023-03-12T00:54:56;98169.53;;;-2.49;89.05
29907;BME280;16776;50.958;10.994;2023-03-12T00:57:23;98172.91;;;-2.50;89.43
29907;BME280;16776;50.958;10.994;2023-03-12T00:59:50;98169.53;;;-2.51;89.28
29907;BME280;16776;50.958;10.994;2023-03-12T01:02:17;98164.53;;;-2.48;89.56
29907;BME280;16776;50.958;10.994;2023-03-12T01:04:44;98159.44;;;-2.51;88.99
29907;BME280;16776;50.958;10.994;2023-03-12T01:07:11;98151.88;;;-2.51;89.62
29907;BME280;16776;50.958;10.994;2023-03-12T01:09:37;98155.22;;;-2.52;89.08
29907;BME280;16776;50.958;10.994;2023-03-12T01:12:05;98153.53;;;-2.53;89.07
29907;BME280;16776;50.958;10.994;2023-03-12T01:14:32;98152.72;;;-2.52;89.19
29907;BME280;16776;50.958;10.994;2023-03-12T01:16:59;98156.91;;;-2.52;89.27
29907;BME280;16776;50.958;10.994;2023-03-12T01:19:27;98156.03;;;-2.53;89.34
29907;BME280;16776;50.958;10.994;2023-03-12T01:21:53;98157.72;;;-2.53;89.50
29907;BME280;16776;50.958;10.994;2023-03-12T01:24:20;98156.88;;;-2.54;88.83
29907;BME280;16776;50.958;10.994;2023-03-12T01:26:46;98163.53;;;-2.56;89.12
29907;BME280;16776;50.958;10.994;2023-03-12T01:29:13;98164.38;;;-2.57;89.14
29907;BME280;16776;50.958;10.994;2023-03-12T01:31:40;98160.97;;;-2.59;88.67
29907;BME280;16776;50.958;10.994;2023-03-12T01:34:09;98160.16;;;-2.58;88.99
29907;BME280;16776;50.958;10.994;2023-03-12T01:36:38;98162.63;;;-2.61;89.02
29907;BME280;16776;50.958;10.994;2023-03-12T01:39:04;98163.44;;;-2.62;88.76
29907;BME280;16776;50.958;10.994;2023-03-12T01:41:32;98155.88;;;-2.64;89.50
29907;BME280;16776;50.958;10.994;2023-03-12T01:43:59;98163.38;;;-2.65;88.76
29907;BME280;16776;50.958;10.994;2023-03-12T01:46:30;98163.34;;;-2.67;88.77
29907;BME280;16776;50.958;10.994;2023-03-12T01:49:04;98162.50;;;-2.67;88.98
29907;BME280;16776;50.958;10.994;2023-03-12T01:51:34;98157.44;;;-2.69;89.30
29907;BME280;16776;50.958;10.994;2023-03-12T01:54:06;98148.16;;;-2.71;89.03
29907;BME280;16776;50.958;10.994;2023-03-12T01:56:34;98148.97;;;-2.72;89.45
29907;BME280;16776;50.958;10.994;2023-03-12T01:59:04;98150.63;;;-2.74;88.80
29907;BME280;16776;50.958;10.994;2023-03-12T02:01:34;98145.53;;;-2.77;88.91
29907;BME280;16776;50.958;10.994;2023-03-12T02:04:01;98150.56;;;-2.76;88.98
29907;BME280;16776;50.958;10.994;2023-03-12T02:06:33;98155.66;;;-2.74;89.18
29907;BME280;16776;50.958;10.994;2023-03-12T02:09:05;98155.66;;;-2.74;88.95
29907;BME280;16776;50.958;10.994;2023-03-12T02:11:34;98156.47;;;-2.75;89.19
29907;BME280;16776;50.958;10.994;2023-03-12T02:14:00;98151.44;;;-2.75;89.57
29907;BME280;16776;50.958;10.994;2023-03-12T02:16:27;98153.13;;;-2.74;89.53
29907;BME280;16776;50.958;10.994;2023-03-12T02:18:56;98147.25;;;-2.76;89.32
29907;BME280;16776;50.958;10.994;2023-03-12T02:21:27;98159.88;;;-2.73;89.60
29907;BME280;16776;50.958;10.994;2023-03-12T02:24:05;98154.03;;;-2.72;88.83
29907;BME280;16776;50.958;10.994;2023-03-12T02:26:34;98157.34;;;-2.73;89.18
29907;BME280;16776;50.958;10.994;2023-03-12T02:29:02;98153.91;;;-2.78;89.02
29907;BME280;16776;50.958;10.994;2023-03-12T02:31:32;98162.41;;;-2.73;89.44
29907;BME280;16776;50.958;10.994;2023-03-12T02:34:00;98153.91;;;-2.78;89.10
29907;BME280;16776;50.958;10.994;2023-03-12T02:36:27;98154.72;;;-2.79;88.70
29907;BME280;16776;50.958;10.994;2023-03-12T02:38:55;98150.50;;;-2.80;89.25
29907;BME280;16776;50.958;10.994;2023-03-12T02:41:25;98152.16;;;-2.81;89.45
29907;BME280;16776;50.958;10.994;2023-03-12T02:43:58;98152.16;;;-2.81;89.00
29907;BME280;16776;50.958;10.994;2023-03-12T02:46:31;98144.56;;;-2.84;89.30
29907;BME280;16776;50.958;10.994;2023-03-12T02:49:03;98149.56;;;-2.85;88.80
29907;BME280;16776;50.958;10.994;2023-03-12T02:51:29;98159.56;;;-2.88;89.29
29907;BME280;16776;50.958;10.994;2023-03-12T02:53:56;98158.75;;;-2.89;89.36
29907;BME280;16776;50.958;10.994;2023-03-12T02:56:24;98164.63;;;-2.88;88.91
29907;BME280;16776;50.958;10.994;2023-03-12T02:58:51;98161.28;;;-2.89;89.56
29907;BME280;16776;50.958;10.994;2023-03-12T03:01:20;98151.19;;;-2.89;88.92
29907;BME280;16776;50.958;10.994;2023-03-12T03:03:46;98153.72;;;-2.89;89.12
29907;BME280;16776;50.958;10.994;2023-03-12T03:06:13;98155.44;;;-2.86;89.63
29907;BME280;16776;50.958;10.994;2023-03-12T03:08:40;98152.09;;;-2.85;89.22
29907;BME280;16776;50.958;10.994;2023-03-12T03:11:09;98134.34;;;-2.91;89.51
29907;BME280;16776;50.958;10.994;2023-03-12T03:13:36;98151.31;;;-2.81;89.74
29907;BME280;16776;50.958;10.994;2023-03-12T03:16:03;98155.53;;;-2.80;89.77
29907;BME280;16776;50.958;10.994;2023-03-12T03:18:31;98147.16;;;-2.79;89.25
29907;BME280;16776;50.958;10.994;2023-03-12T03:21:00;98156.44;;;-2.78;89.29
29907;BME280;16776;50.958;10.994;2023-03-12T03:23:27;98152.25;;;-2.78;89.45
29907;BME280;16776;50.958;10.994;2023-03-12T03:25:54;98143.00;;;-2.77;89.71
29907;BME280;16776;50.958;10.994;2023-03-12T03:28:22;98146.38;;;-2.75;89.42
29907;BME280;16776;50.958;10.994;2023-03-12T03:30:51;98150.63;;;-2.74;89.22
29907;BME280;16776;50.958;10.994;2023-03-12T03:33:18;98142.19;;;-2.75;89.90
29907;BME280;16776;50.958;10.994;2023-03-12T03:35:46;98143.13;;;-2.71;89.22
29907;BME280;16776;50.958;10.994;2023-03-12T03:38:13;98149.81;;;-2.72;89.32
29907;BME280;16776;50.958;10.994;2023-03-12T03:40:40;98149.78;;;-2.73;89.35
29907;BME280;16776;50.958;10.994;2023-03-12T03:43:06;98148.97;;;-2.72;89.07
29907;BME280;16776;50.958;10.994;2023-03-12T03:45:33;98156.53;;;-2.72;89.41
29907;BME280;16776;50.958;10.994;2023-03-12T03:47:59;98148.94;;;-2.74;89.54
29907;BME280;16776;50.958;10.994;2023-03-12T03:50:26;98153.97;;;-2.74;89.70
29907;BME280;16776;50.958;10.994;2023-03-12T03:52:54;98154.88;;;-2.72;89.96
29907;BME280;16776;50.958;10.994;2023-03-12T03:55:22;98164.13;;;-2.71;89.58
29907;BME280;16776;50.958;10.994;2023-03-12T03:57:50;98161.56;;;-2.72;89.89
29907;BME280;16776;50.958;10.994;2023-03-12T04:00:17;98158.28;;;-2.70;89.90
29907;BME280;16776;50.958;10.994;2023-03-12T04:02:43;98154.06;;;-2.69;89.45
29907;BME280;16776;50.958;10.994;2023-03-12T04:05:10;98162.50;;;-2.67;89.58
29907;BME280;16776;50.958;10.994;2023-03-12T04:07:37;98155.78;;;-2.67;90.19
29907;BME280;16776;50.958;10.994;2023-03-12T04:10:06;98158.38;;;-2.64;89.29
29907;BME280;16776;50.958;10.994;2023-03-12T04:12:33;98155.00;;;-2.64;89.32
29907;BME280;16776;50.958;10.994;2023-03-12T04:14:59;98154.16;;;-2.65;89.55
29907;BME280;16776;50.958;10.994;2023-03-12T04:17:26;98160.06;;;-2.64;90.08
29907;BME280;16776;50.958;10.994;2023-03-12T04:19:52;98149.13;;;-2.65;90.19
29907;BME280;16776;50.958;10.994;2023-03-12T04:22:19;98146.59;;;-2.63;89.58
29907;BME280;16776;50.958;10.994;2023-03-12T04:24:45;98144.94;;;-2.64;90.04
29907;BME280;16776;50.958;10.994;2023-03-12T04:27:13;98152.53;;;-2.61;89.47
29907;BME280;16776;50.958;10.994;2023-03-12T04:29:40;98143.25;;;-2.62;90.38
29907;BME280;16776;50.958;10.994;2023-03-12T04:32:07;98139.13;;;-2.60;89.81
29907;BME280;16776;50.958;10.994;2023-03-12T04:34:36;98150.06;;;-2.58;89.92
29907;BME280;16776;50.958;10.994;2023-03-12T04:37:02;98139.91;;;-2.63;89.92
29907;BME280;16776;50.958;10.994;2023-03-12T04:39:29;98145.00;;;-2.60;89.73
29907;BME280;16776;50.958;10.994;2023-03-12T04:41:55;98145.84;;;-2.59;90.21
29907;BME280;16776;50.958;10.994;2023-03-12T04:44:25;98146.75;;;-2.55;89.90
29907;BME280;16776;50.958;10.994;2023-03-12T04:46:51;98155.97;;;-2.58;89.98
29907;BME280;16776;50.958;10.994;2023-03-12T04:49:18;98140.84;;;-2.56;90.37
29907;BME280;16776;50.958;10.994;2023-03-12T04:51:44;98146.78;;;-2.54;90.45
29907;BME280;16776;50.958;10.994;2023-03-12T04:54:11;98140.03;;;-2.55;89.67
29907;BME280;16776;50.958;10.994;2023-03-12T04:56:37;98138.34;;;-2.56;90.05
29907;BME280;16776;50.958;10.994;2023-03-12T04:59:04;98127.41;;;-2.58;90.16
29907;BME280;16776;50.958;10.994;2023-03-12T05:01:35;98138.44;;;-2.50;89.81
29907;BME280;16776;50.958;10.994;2023-03-12T05:04:03;98139.28;;;-2.51;90.57
29907;BME280;16776;50.958;10.994;2023-03-12T05:06:30;98129.94;;;-2.55;90.15
29907;BME280;16776;50.958;10.994;2023-03-12T05:08:56;98139.28;;;-2.51;90.14
29907;BME280;16776;50.958;10.994;2023-03-12T05:11:23;98139.31;;;-2.48;89.88
29907;BME280;16776;50.958;10.994;2023-03-12T05:13:52;98139.31;;;-2.48;89.97
29907;BME280;16776;50.958;10.994;2023-03-12T05:16:19;98140.22;;;-2.46;90.73
29907;BME280;16776;50.958;10.994;2023-03-12T05:18:47;98138.53;;;-2.44;90.41
29907;BME280;16776;50.958;10.994;2023-03-12T05:21:15;98136.88;;;-2.43;89.97
29907;BME280;16776;50.958;10.994;2023-03-12T05:23:42;98140.25;;;-2.44;89.94
29907;BME280;16776;50.958;10.994;2023-03-12T05:26:16;98142.81;;;-2.40;89.93
29907;BME280;16776;50.958;10.994;2023-03-12T05:28:43;98139.41;;;-2.42;90.70
29907;BME280;16776;50.958;10.994;2023-03-12T05:31:11;98131.84;;;-2.42;90.36
29907;BME280;16776;50.958;10.994;2023-03-12T05:33:38;98136.97;;;-2.39;90.13
29907;BME280;16776;50.958;10.994;2023-03-12T05:36:07;98141.19;;;-2.36;90.68
29907;BME280;16776;50.958;10.994;2023-03-12T05:38:34;98137.00;;;-2.36;90.75
29907;BME280;16776;50.958;10.994;2023-03-12T05:41:00;98131.94;;;-2.39;90.51
29907;BME280;16776;50.958;10.994;2023-03-12T05:43:28;98134.50;;;-2.34;90.14
29907;BME280;16776;50.958;10.994;2023-03-12T05:45:57;98143.84;;;-2.29;90.63
29907;BME280;16776;50.958;10.994;2023-03-12T05:48:24;98141.34;;;-2.27;90.34
29907;BME280;16776;50.958;10.994;2023-03-12T05:50:51;98135.50;;;-2.25;90.78
29907;BME280;16776;50.958;10.994;2023-03-12T05:53:19;98136.38;;;-2.23;90.93
29907;BME280;16776;50.958;10.994;2023-03-12T05:55:45;98139.75;;;-2.22;90.67
29907;BME280;16776;50.958;10.994;2023-03-12T05:58:12;98138.13;;;-2.20;90.53
29907;BME280;16776;50.958;10.994;2023-03-12T06:00:40;98139.00;;;-2.17;90.72
29907;BME280;16776;50.958;10.994;2023-03-12T06:03:08;98147.38;;;-2.18;90.84
29907;BME280;16776;50.958;10.994;2023-03-12T06:05:35;98142.41;;;-2.14;91.16
29907;BME280;16776;50.958;10.994;2023-03-12T06:08:03;98135.72;;;-2.12;90.54
29907;BME280;16776;50.958;10.994;2023-03-12T06:10:32;98137.44;;;-2.08;91.21
29907;BME280;16776;50.958;10.994;2023-03-12T06:12:58;98141.72;;;-2.04;91.18
29907;BME280;16776;50.958;10.994;2023-03-12T06:15:25;98128.31;;;-2.02;91.32
29907;BME280;16776;50.958;10.994;2023-03-12T06:17:51;98125.84;;;-1.97;90.67
29907;BME280;16776;50.958;10.994;2023-03-12T06:20:18;98125.91;;;-1.94;91.53
29907;BME280;16776;50.958;10.994;2023-03-12T06:22:44;98125.09;;;-1.90;91.34
29907;BME280;16776;50.958;10.994;2023-03-12T06:25:11;98124.31;;;-1.86;91.19
29907;BME280;16776;50.958;10.994;2023-03-12T06:27:39;98128.63;;;-1.81;90.98
29907;BME280;16776;50.958;10.994;2023-03-12T06:30:07;98120.25;;;-1.77;91.79
29907;BME280;16776;50.958;10.994;2023-03-12T06:32:34;98124.53;;;-1.71;91.23
29907;BME280;16776;50.958;10.994;2023-03-12T06:35:00;98126.34;;;-1.62;91.64
29907;BME280;16776;50.958;10.994;2023-03-12T06:37:28;98123.94;;;-1.55;91.89
29907;BME280;16776;50.958;10.994;2023-03-12T06:39:55;98113.91;;;-1.47;92.07
29907;BME280;16776;50.958;10.994;2023-03-12T06:42:21;98105.59;;;-1.40;91.45
29907;BME280;16776;50.958;10.994;2023-03-12T06:44:52;98115.81;;;-1.31;91.83
29907;BME280;16776;50.958;10.994;2023-03-12T06:47:18;98112.53;;;-1.22;91.78
29907;BME280;16776;50.958;10.994;2023-03-12T06:49:45;98107.63;;;-1.12;92.07
29907;BME280;16776;50.958;10.994;2023-03-12T06:52:11;98117.81;;;-1.03;92.41
29907;BME280;16776;50.958;10.994;2023-03-12T06:54:38;98117.13;;;-0.89;92.79
29907;BME280;16776;50.958;10.994;2023-03-12T06:57:05;98102.09;;;-0.76;93.07
29907;BME280;16776;50.958;10.994;2023-03-12T06:59:31;98107.31;;;-0.61;93.02
29907;BME280;16776;50.958;10.994;2023-03-12T07:01:59;98102.38;;;-0.45;92.48
29907;BME280;16776;50.958;10.994;2023-03-12T07:04:26;98099.94;;;-0.35;94.55
29907;BME280;16776;50.958;10.994;2023-03-12T07:06:52;98098.47;;;-0.08;96.73
29907;BME280;16776;50.958;10.994;2023-03-12T07:09:19;98095.28;;;0.26;97.39
29907;BME280;16776;50.958;10.994;2023-03-12T07:11:46;98088.72;;;0.64;96.87
29907;BME280;16776;50.958;10.994;2023-03-12T07:14:14;98084.63;;;0.97;95.66
29907;BME280;16776;50.958;10.994;2023-03-12T07:16:41;98094.00;;;1.22;94.52
29907;BME280;16776;50.958;10.994;2023-03-12T07:19:09;98096.56;;;1.40;94.34
29907;BME280;16776;50.958;10.994;2023-03-12T07:21:35;98099.97;;;1.50;93.26
29907;BME280;16776;50.958;10.994;2023-03-12T07:24:02;98102.53;;;1.59;93.34
29907;BME280;16776;50.958;10.994;2023-03-12T07:26:31;98097.44;;;1.64;92.42
29907;BME280;16776;50.958;10.994;2023-03-12T07:28:58;98096.59;;;1.66;91.71
29907;BME280;16776;50.958;10.994;2023-03-12T07:31:25;98094.91;;;1.65;91.55
29907;BME280;16776;50.958;10.994;2023-03-12T07:33:51;98099.13;;;1.63;91.96
29907;BME280;16776;50.958;10.994;2023-03-12T07:36:19;98098.28;;;1.64;92.29
29907;BME280;16776;50.958;10.994;2023-03-12T07:38:46;98103.34;;;1.66;92.56
29907;BME280;16776;50.958;10.994;2023-03-12T07:41:12;98094.91;;;1.71;92.49
29907;BME280;16776;50.958;10.994;2023-03-12T07:43:39;98088.13;;;1.76;91.70
29907;BME280;16776;50.958;10.994;2023-03-12T07:46:05;98091.50;;;1.80;90.91
29907;BME280;16776;50.958;10.994;2023-03-12T07:48:32;98095.72;;;1.85;91.69
29907;BME280;16776;50.958;10.994;2023-03-12T07:50:59;98086.44;;;1.91;90.83
29907;BME280;16776;50.958;10.994;2023-03-12T07:53:27;98083.91;;;1.97;91.60
29907;BME280;16776;50.958;10.994;2023-03-12T07:55:53;98079.66;;;1.97;91.00
29907;BME280;16776;50.958;10.994;2023-03-12T07:58:20;98072.88;;;1.98;90.44
29907;BME280;16776;50.958;10.994;2023-03-12T08:00:46;98076.25;;;2.00;90.65
29907;BME280;16776;50.958;10.994;2023-03-12T08:03:13;98077.09;;;2.06;90.33
29907;BME280;16776;50.958;10.994;2023-03-12T08:05:41;98077.09;;;2.14;91.76
29907;BME280;16776;50.958;10.994;2023-03-12T08:08:07;98066.91;;;2.23;90.56
29907;BME280;16776;50.958;10.994;2023-03-12T08:10:36;98066.88;;;2.34;90.02
29907;BME280;16776;50.958;10.994;2023-03-12T08:13:03;98064.31;;;2.38;90.77
29907;BME280;16776;50.958;10.994;2023-03-12T08:15:29;98067.69;;;2.46;90.64
29907;BME280;16776;50.958;10.994;2023-03-12T08:17:56;98058.34;;;2.50;90.50
29907;BME280;16776;50.958;10.994;2023-03-12T08:20:22;98055.81;;;2.54;89.83
29907;BME280;16776;50.958;10.994;2023-03-12T08:22:49;98060.00;;;2.60;90.72
29907;BME280;16776;50.958;10.994;2023-03-12T08:25:15;98054.03;;;2.69;89.51
29907;BME280;16776;50.958;10.994;2023-03-12T08:27:44;98054.00;;;2.79;90.34
29907;BME280;16776;50.958;10.994;2023-03-12T08:30:11;98055.66;;;2.85;90.44
29907;BME280;16776;50.958;10.994;2023-03-12T08:32:39;98044.59;;;2.90;89.75
29907;BME280;16776;50.958;10.994;2023-03-12T08:35:09;98041.19;;;2.96;88.86
29907;BME280;16776;50.958;10.994;2023-03-12T08:37:35;98036.91;;;3.01;88.75
29907;BME280;16776;50.958;10.994;2023-03-12T08:40:02;98031.81;;;3.04;88.08
29907;BME280;16776;50.958;10.994;2023-03-12T08:42:33;98036.91;;;3.05;88.50
29907;BME280;16776;50.958;10.994;2023-03-12T08:45:01;98035.16;;;3.09;89.06
29907;BME280;16776;50.958;10.994;2023-03-12T08:47:28;98040.25;;;3.12;87.62
29907;BME280;16776;50.958;10.994;2023-03-12T08:49:54;98035.13;;;3.15;88.26
29907;BME280;16776;50.958;10.994;2023-03-12T08:52:21;98028.31;;;3.20;87.04
29907;BME280;16776;50.958;10.994;2023-03-12T08:54:47;98029.16;;;3.22;87.70
29907;BME280;16776;50.958;10.994;2023-03-12T08:57:14;98034.22;;;3.21;86.88
29907;BME280;16776;50.958;10.994;2023-03-12T08:59:40;98024.91;;;3.20;86.87
29907;BME280;16776;50.958;10.994;2023-03-12T09:02:10;98016.41;;;3.22;87.16
29907;BME280;16776;50.958;10.994;2023-03-12T09:04:37;97997.00;;;3.09;86.08
29907;BME280;16776;50.958;10.994;2023-03-12T09:07:04;97980.94;;;3.04;86.38
29907;BME280;16776;50.958;10.994;2023-03-12T09:09:31;97995.31;;;3.13;86.73
29907;BME280;16776;50.958;10.994;2023-03-12T09:11:59;97996.16;;;3.10;87.09
29907;BME280;16776;50.958;10.994;2023-03-12T09:14:25;97997.84;;;3.11;86.91
29907;BME280;16776;50.958;10.994;2023-03-12T09:16:52;98004.63;;;3.11;86.64
29907;BME280;16776;50.958;10.994;2023-03-12T09:19:20;97996.97;;;3.15;87.13
29907;BME280;16776;50.958;10.994;2023-03-12T09:21:48;97992.72;;;3.17;86.44
29907;BME280;16776;50.958;10.994;2023-03-12T09:24:15;97981.75;;;3.11;86.82
29907;BME280;16776;50.958;10.994;2023-03-12T09:26:44;97996.13;;;3.15;85.33
29907;BME280;16776;50.958;10.994;2023-03-12T09:29:11;97990.22;;;3.11;85.97
29907;BME280;16776;50.958;10.994;2023-03-12T09:31:37;97987.69;;;3.08;85.28
29907;BME280;16776;50.958;10.994;2023-03-12T09:34:04;97993.63;;;3.07;85.40
29907;BME280;16776;50.958;10.994;2023-03-12T09:36:32;97983.47;;;3.05;86.60
29907;BME280;16776;50.958;10.994;2023-03-12T09:38:59;97986.03;;;3.02;85.95
29907;BME280;16776;50.958;10.994;2023-03-12T09:41:29;97991.97;;;3.01;86.21
29907;BME280;16776;50.958;10.994;2023-03-12T09:44:01;97969.22;;;2.83;86.35
29907;BME280;16776;50.958;10.994;2023-03-12T09:46:33;97993.69;;;2.99;85.93
29907;BME280;16776;50.958;10.994;2023-03-12T09:49:04;97990.31;;;2.99;86.19
29907;BME280;16776;50.958;10.994;2023-03-12T09:51:35;97985.19;;;3.02;87.27
29907;BME280;16776;50.958;10.994;2023-03-12T09:54:06;97986.88;;;3.06;87.01
29907;BME280;16776;50.958;10.994;2023-03-12T09:56:36;97994.50;;;3.06;86.60
29907;BME280;16776;50.958;10.994;2023-03-12T09:59:03;97990.22;;;3.08;86.02
29907;BME280;16776;50.958;10.994;2023-03-12T10:01:41;97974.06;;;3.17;86.63
29907;BME280;16776;50.958;10.994;2023-03-12T10:04:18;97980.00;;;3.17;86.46
29907;BME280;16776;50.958;10.994;2023-03-12T10:06:52;97962.25;;;3.11;85.84
29907;BME280;16776;50.958;10.994;2023-03-12T10:09:32;97978.25;;;3.24;86.73
29907;BME280;16776;50.958;10.994;2023-03-12T10:12:06;97958.75;;;3.20;85.17
29907;BME280;16776;50.958;10.994;2023-03-12T10:14:43;97956.19;;;3.23;85.15
29907;BME280;16776;50.958;10.994;2023-03-12T10:17:29;97966.34;;;3.32;84.94
29907;BME280;16776;50.958;10.994;2023-03-12T10:20:19;97972.25;;;3.29;84.90
29907;BME280;16776;50.958;10.994;2023-03-12T10:22:55;97967.19;;;3.26;85.63
29907;BME280;16776;50.958;10.994;2023-03-12T10:25:27;97974.03;;;3.20;85.53
29907;BME280;16776;50.958;10.994;2023-03-12T10:27:58;97953.75;;;3.09;85.56
29907;BME280;16776;50.958;10.994;2023-03-12T10:30:29;97946.13;;;3.12;85.84
29907;BME280;16776;50.958;10.994;2023-03-12T10:32:59;97956.25;;;3.18;85.89
29907;BME280;16776;50.958;10.994;2023-03-12T10:35:28;97937.66;;;3.10;86.00
29907;BME280;16776;50.958;10.994;2023-03-12T10:37:58;97938.44;;;3.18;86.06
29907;BME280;16776;50.958;10.994;2023-03-12T10:40:27;97928.22;;;3.23;86.45
29907;BME280;16776;50.958;10.994;2023-03-12T10:42:55;97942.63;;;3.25;85.97
29907;BME280;16776;50.958;10.994;2023-03-12T10:45:26;97945.94;;;3.33;85.89
29907;BME280;16776;50.958;10.994;2023-03-12T10:47:59;97944.25;;;3.37;85.19
29907;BME280;16776;50.958;10.994;2023-03-12T10:50:28;97934.94;;;3.34;85.71
29907;BME280;16776;50.958;10.994;2023-03-12T10:55:59;97932.31;;;3.43;86.20
29907;BME280;16776;50.958;10.994;2023-03-12T10:58:31;97932.28;;;3.45;85.88
29907;BME280;16776;50.958;10.994;2023-03-12T11:01:00;97930.56;;;3.45;86.08
29907;BME280;16776;50.958;10.994;2023-03-12T11:03:28;97936.50;;;3.46;85.67
29907;BME280;16776;50.958;10.994;2023-03-12T11:05:57;97919.53;;;3.47;85.86
29907;BME280;16776;50.958;10.994;2023-03-12T11:08:28;97909.41;;;3.39;86.11
29907;BME280;16776;50.958;10.994;2023-03-12T11:10:58;97917.84;;;3.49;86.30
29907;BME280;16776;50.958;10.994;2023-03-12T11:13:31;97926.25;;;3.54;85.80
29907;BME280;16776;50.958;10.994;2023-03-12T11:15:59;97924.63;;;3.50;85.86
29907;BME280;16776;50.958;10.994;2023-03-12T11:18:30;97926.31;;;3.51;86.38
29907;BME280;16776;50.958;10.994;2023-03-12T11:21:17;97914.44;;;3.50;86.16
29907;BME280;16776;50.958;10.994;2023-03-12T11:24:08;97922.00;;;3.56;86.64
29907;BME280;16776;50.958;10.994;2023-03-12T11:26:45;97917.75;;;3.55;86.02
29907;BME280;16776;50.958;10.994;2023-03-12T11:29:24;97918.63;;;3.54;86.41
29907;BME280;16776;50.958;10.994;2023-03-12T11:32:02;97912.69;;;3.52;86.50
29907;BME280;16776;50.958;10.994;2023-03-12T11:34:36;97915.25;;;3.52;86.70
29907;BME280;16776;50.958;10.994;2023-03-12T11:37:09;97905.94;;;3.49;86.80
29907;BME280;16776;50.958;10.994;2023-03-12T11:39:55;97903.41;;;3.49;86.38
29907;BME280;16776;50.958;10.994;2023-03-12T11:42:39;97884.81;;;3.42;86.33
29907;BME280;16776;50.958;10.994;2023-03-12T11:45:18;97890.69;;;3.48;86.91
29907;BME280;16776;50.958;10.994;2023-03-12T11:47:58;97887.31;;;3.45;86.77
29907;BME280;16776;50.958;10.994;2023-03-12T11:50:40;97883.09;;;3.44;87.16
29907;BME280;16776;50.958;10.994;2023-03-12T11:53:30;97886.44;;;3.48;87.46
29907;BME280;16776;50.958;10.994;2023-03-12T11:56:14;97871.22;;;3.43;86.95
29907;BME280;16776;50.958;10.994;2023-03-12T11:58:53;97869.53;;;3.41;87.29
29907;BME280;16776;50.958;10.994;2023-03-12T12:01:28;97871.25;;;3.40;87.94
29907;BME280;16776;50.958;10.994;2023-03-12T12:04:26;97872.03;;;3.45;87.42
29907;BME280;16776;50.958;10.994;2023-03-12T12:07:05;97872.06;;;3.44;87.99
29907;BME280;16776;50.958;10.994;2023-03-12T12:09:45;97872.06;;;3.44;87.84
29907;BME280;16776;50.958;10.994;2023-03-12T12:12:36;97878.81;;;3.47;88.55
29907;BME280;16776;50.958;10.994;2023-03-12T12:15:17;97864.38;;;3.50;89.00
29907;BME280;16776;50.958;10.994;2023-03-12T12:17:57;97860.06;;;3.54;88.24
29907;BME280;16776;50.958;10.994;2023-03-12T12:20:36;97852.38;;;3.58;88.18
29907;BME280;16776;50.958;10.994;2023-03-12T12:23:21;97839.69;;;3.57;88.48
29907;BME280;16776;50.958;10.994;2023-03-12T12:26:03;97839.63;;;3.61;88.54
29907;BME280;16776;50.958;10.994;2023-03-12T12:28:53;97831.06;;;3.65;88.80
29907;BME280;16776;50.958;10.994;2023-03-12T12:31:29;97826.91;;;3.60;88.72
29907;BME280;16776;50.958;10.994;2023-03-12T12:34:14;97828.56;;;3.64;88.67
29907;BME280;16776;50.958;10.994;2023-03-12T12:36:47;97828.66;;;3.58;90.13
29907;BME280;16776;50.958;10.994;2023-03-12T12:39:18;97831.19;;;3.56;89.95
29907;BME280;16776;50.958;10.994;2023-03-12T12:41:54;97826.09;;;3.58;89.58
29907;BME280;16776;50.958;10.994;2023-03-12T12:44:24;97824.41;;;3.57;90.82
29907;BME280;16776;50.958;10.994;2023-03-12T12:46:56;97821.81;;;3.61;90.67
29907;BME280;16776;50.958;10.994;2023-03-12T12:49:30;97815.78;;;3.67;90.56
29907;BME280;16776;50.958;10.994;2023-03-12T12:52:04;97810.69;;;3.67;90.68
29907;BME280;16776;50.958;10.994;2023-03-12T12:54:35;97803.84;;;3.72;90.67
29907;BME280;16776;50.958;10.994;2023-03-12T12:57:12;97797.03;;;3.74;90.52
29907;BME280;16776;50.958;10.994;2023-03-12T12:59:53;97796.03;;;3.84;90.56
29907;BME280;16776;50.958;10.994;2023-03-12T13:02:27;97802.03;;;3.83;90.96
29907;BME280;16776;50.958;10.994;2023-03-12T13:04:57;97788.56;;;3.72;91.49
29907;BME280;16776;50.958;10.994;2023-03-12T13:07:30;97804.50;;;3.86;91.11
29907;BME280;16776;50.958;10.994;2023-03-12T13:09:58;97809.69;;;3.80;91.30